createdAt,value
2018-06-15T00:00:02.418Z,47.50
2018-06-15T00:02:31.940Z,47.80
2018-06-15T00:05:00.123Z,47.90
2018-06-15T00:07:28.257Z,48.10
2018-06-15T00:09:57.022Z,48.20
2018-06-15T00:12:25.277Z,48.20
2018-06-15T00:14:53.424Z,48.50
2018-06-15T00:17:21.766Z,48.90
2018-06-15T00:19:49.963Z,49.00
2018-06-15T00:22:18.124Z,49.10
2018-06-15T00:24:46.310Z,49.10
2018-06-15T00:29:42.915Z,49.30
2018-06-15T00:32:11.068Z,49.20
2018-06-15T00:34:39.289Z,49.30
2018-06-15T00:37:07.594Z,49.50
2018-06-15T00:39:35.919Z,49.10
2018-06-15T00:42:04.108Z,49.00
2018-06-15T00:44:32.288Z,49.00
2018-06-15T00:47:00.681Z,48.90
2018-06-15T00:49:28.850Z,49.00
2018-06-15T00:51:57.155Z,49.10
2018-06-15T00:54:25.440Z,49.00
2018-06-15T00:57:05.130Z,49.20
2018-06-15T00:59:33.366Z,49.30
2018-06-15T01:02:01.555Z,49.40
2018-06-15T01:04:29.924Z,49.40
2018-06-15T01:06:58.078Z,49.60
2018-06-15T01:09:26.467Z,49.80
2018-06-15T01:11:54.576Z,49.70
2018-06-15T01:14:22.784Z,50.00
2018-06-15T01:16:50.920Z,50.40
2018-06-15T01:19:20.805Z,50.50
2018-06-15T01:21:48.963Z,50.40
2018-06-15T01:24:17.129Z,50.60
2018-06-15T01:26:45.250Z,50.60
2018-06-15T01:29:13.491Z,50.70
2018-06-15T01:31:42.542Z,50.80
2018-06-15T01:34:10.755Z,50.90
2018-06-15T01:36:39.161Z,51.10
2018-06-15T01:39:08.229Z,51.00
2018-06-15T01:41:36.707Z,51.20
2018-06-15T01:44:05.496Z,51.10
2018-06-15T01:46:34.791Z,51.10
2018-06-15T01:49:02.906Z,51.20
2018-06-15T01:51:37.555Z,51.30
2018-06-15T01:54:05.703Z,51.40
2018-06-15T01:56:33.896Z,51.40
2018-06-15T01:59:02.177Z,51.50
2018-06-15T02:01:30.587Z,51.50
2018-06-15T02:03:58.730Z,51.50
2018-06-15T02:06:26.938Z,51.60
2018-06-15T02:11:24.380Z,51.90
2018-06-15T02:13:52.494Z,51.80
2018-06-15T02:16:20.646Z,51.90
2018-06-15T02:18:49.700Z,51.90
2018-06-15T02:21:17.945Z,52.00
2018-06-15T02:23:46.288Z,52.20
2018-06-15T02:26:14.462Z,52.20
2018-06-15T02:28:42.543Z,52.30
2018-06-15T02:31:10.836Z,52.40
2018-06-15T02:33:39.082Z,53.00
2018-06-15T02:36:07.455Z,52.50
2018-06-15T02:38:36.422Z,52.50
2018-06-15T02:41:04.612Z,52.60
2018-06-15T02:43:32.768Z,53.30
2018-06-15T02:46:00.949Z,52.70
2018-06-15T02:48:29.932Z,52.80
2018-06-15T02:50:58.151Z,52.90
2018-06-15T02:53:27.388Z,53.00
2018-06-15T02:58:23.491Z,53.70
2018-06-15T03:00:52.115Z,52.70
2018-06-15T03:03:20.962Z,53.90
2018-06-15T03:05:49.092Z,53.40
2018-06-15T03:08:17.314Z,53.60
2018-06-15T03:10:45.491Z,53.70
2018-06-15T03:13:13.636Z,53.80
2018-06-15T03:15:41.804Z,53.80
2018-06-15T03:18:09.938Z,54.00
2018-06-15T03:20:38.128Z,54.20
2018-06-15T03:23:06.708Z,54.10
2018-06-15T03:25:34.914Z,54.10
2018-06-15T03:28:03.045Z,54.20
2018-06-15T03:30:31.254Z,54.30
2018-06-15T03:32:59.418Z,54.30
2018-06-15T03:35:27.587Z,54.30
2018-06-15T03:37:55.910Z,54.40
2018-06-15T03:40:24.005Z,54.50
2018-06-15T03:42:52.224Z,54.60
2018-06-15T03:45:20.440Z,54.60
2018-06-15T03:47:48.570Z,54.80
2018-06-15T03:50:16.677Z,54.80
2018-06-15T03:52:44.813Z,54.90
2018-06-15T03:55:13.064Z,54.90
2018-06-15T04:00:09.555Z,55.20
2018-06-15T04:02:37.955Z,55.30
2018-06-15T04:05:06.115Z,55.30
2018-06-15T04:07:34.377Z,55.40
2018-06-15T04:10:02.478Z,55.50
2018-06-15T04:12:30.647Z,55.50
2018-06-15T04:14:58.791Z,56.10
2018-06-15T04:17:26.915Z,55.50
2018-06-15T04:19:55.123Z,55.60
2018-06-15T04:22:23.257Z,55.80
2018-06-15T04:24:51.481Z,55.70
2018-06-15T04:27:19.686Z,55.60
2018-06-15T04:29:47.917Z,55.60
2018-06-15T04:32:16.114Z,56.00
2018-06-15T04:34:44.292Z,55.90
2018-06-15T04:37:15.506Z,55.90
2018-06-15T04:39:44.638Z,56.00
2018-06-15T04:42:12.800Z,56.00
2018-06-15T04:44:42.295Z,56.00
2018-06-15T04:47:10.647Z,56.50
2018-06-15T04:49:39.110Z,56.10
2018-06-15T04:52:07.335Z,56.10
2018-06-15T04:54:35.570Z,56.00
2018-06-15T04:57:03.783Z,56.20
2018-06-15T04:59:31.955Z,56.00
2018-06-15T05:02:00.190Z,56.00
2018-06-15T05:04:28.316Z,56.20
2018-06-15T05:06:56.547Z,56.20
2018-06-15T05:09:24.732Z,56.30
2018-06-15T05:11:53.091Z,56.10
2018-06-15T05:14:21.353Z,56.20
2018-06-15T05:16:49.617Z,56.30
2018-06-15T05:19:17.908Z,56.30
2018-06-15T05:21:46.272Z,56.40
2018-06-15T05:24:14.665Z,56.30
2018-06-15T05:26:42.833Z,56.50
2018-06-15T05:29:11.074Z,56.30
2018-06-15T05:31:39.242Z,56.30
2018-06-15T05:34:07.583Z,56.80
2018-06-15T05:36:35.857Z,56.30
2018-06-15T05:41:34.175Z,56.30
2018-06-15T05:46:30.714Z,56.40
2018-06-15T05:48:58.931Z,56.30
2018-06-15T05:51:27.261Z,56.40
2018-06-15T05:53:55.422Z,56.30
2018-06-15T05:56:23.698Z,56.30
2018-06-15T05:58:51.901Z,56.30
2018-06-15T06:01:20.047Z,56.40
2018-06-15T06:03:48.315Z,56.40
2018-06-15T06:06:16.601Z,56.60
2018-06-15T06:08:44.802Z,56.70
2018-06-15T06:11:12.987Z,55.90
2018-06-15T06:13:41.196Z,56.20
2018-06-15T06:16:09.409Z,56.70
2018-06-15T06:18:37.749Z,56.80
2018-06-15T06:21:06.018Z,56.80
2018-06-15T06:23:34.218Z,56.80
2018-06-15T06:26:02.494Z,56.90
2018-06-15T06:28:30.671Z,56.50
2018-06-15T06:30:58.988Z,56.30
2018-06-15T06:33:27.303Z,56.40
2018-06-15T06:35:56.693Z,56.60
2018-06-15T06:38:24.870Z,56.60
2018-06-15T06:40:53.227Z,56.70
2018-06-15T06:43:21.650Z,56.60
2018-06-15T06:45:49.811Z,56.90
2018-06-15T06:48:18.005Z,57.00
2018-06-15T06:50:46.139Z,57.00
2018-06-15T06:53:14.300Z,56.90
2018-06-15T06:55:42.490Z,56.70
2018-06-15T06:58:10.731Z,56.90
2018-06-15T07:00:38.924Z,56.90
2018-06-15T07:03:07.257Z,56.90
2018-06-15T07:05:35.526Z,57.00
2018-06-15T07:08:03.803Z,57.10
2018-06-15T07:10:32.009Z,57.20
2018-06-15T07:13:00.299Z,57.50
2018-06-15T07:15:29.691Z,56.80
2018-06-15T07:17:58.068Z,57.20
2018-06-15T07:20:26.291Z,57.40
2018-06-15T07:22:54.504Z,57.20
2018-06-15T07:25:22.702Z,57.40
2018-06-15T07:27:50.873Z,57.30
2018-06-15T07:30:19.088Z,57.10
2018-06-15T07:32:47.340Z,57.50
2018-06-15T07:35:15.551Z,57.70
2018-06-15T07:37:43.701Z,57.70
2018-06-15T07:40:11.901Z,57.60
2018-06-15T07:42:40.152Z,57.50
2018-06-15T07:47:42.976Z,57.60
2018-06-15T07:50:11.309Z,57.40
2018-06-15T07:52:39.402Z,57.70
2018-06-15T07:55:07.597Z,56.70
2018-06-15T07:57:35.950Z,56.80
2018-06-15T08:00:04.779Z,57.00
2018-06-15T08:02:33.080Z,56.90
2018-06-15T08:05:01.387Z,56.50
2018-06-15T08:07:30.026Z,55.60
2018-06-15T08:09:58.459Z,55.50
2018-06-15T08:12:26.810Z,55.60
2018-06-15T08:14:54.983Z,55.50
2018-06-15T08:17:23.279Z,55.10
2018-06-15T08:19:51.457Z,55.20
2018-06-15T08:22:19.702Z,55.00
2018-06-15T08:24:47.897Z,54.80
2018-06-15T08:27:16.065Z,54.80
2018-06-15T08:29:46.198Z,54.70
2018-06-15T08:32:14.404Z,54.50
2018-06-15T08:34:42.604Z,54.70
2018-06-15T08:37:11.557Z,54.00
2018-06-15T08:39:39.764Z,54.40
2018-06-15T08:42:08.023Z,54.50
2018-06-15T08:44:36.514Z,54.60
2018-06-15T08:47:04.778Z,54.60
2018-06-15T08:49:32.968Z,54.60
2018-06-15T08:52:01.169Z,54.80
2018-06-15T08:54:29.355Z,54.80
2018-06-15T08:56:57.547Z,54.80
2018-06-15T08:59:25.678Z,54.60
2018-06-15T09:01:53.931Z,54.20
2018-06-15T09:04:22.273Z,54.20
2018-06-15T09:06:50.492Z,54.00
2018-06-15T09:09:19.673Z,54.40
2018-06-15T09:11:47.929Z,54.00
2018-06-15T09:14:16.216Z,53.50
2018-06-15T09:16:44.396Z,53.60
2018-06-15T09:19:13.059Z,53.90
2018-06-15T09:21:41.223Z,53.40
2018-06-15T09:24:11.030Z,52.60
2018-06-15T09:29:07.660Z,52.90
2018-06-15T09:31:35.899Z,52.80
2018-06-15T09:34:04.285Z,52.90
2018-06-15T09:36:32.472Z,53.30
2018-06-15T09:39:00.663Z,53.70
2018-06-15T09:41:28.908Z,52.80
2018-06-15T09:43:57.234Z,53.40
2018-06-15T09:46:25.774Z,52.00
2018-06-15T09:48:54.946Z,52.50
2018-06-15T09:51:23.192Z,51.90
2018-06-15T09:53:52.400Z,51.60
2018-06-15T09:56:20.592Z,52.20
2018-06-15T09:58:53.209Z,51.90
2018-06-15T10:01:21.691Z,51.60
2018-06-15T10:03:50.105Z,51.80
2018-06-15T10:06:18.335Z,51.30
2018-06-15T10:08:46.593Z,50.50
2018-06-15T10:11:14.870Z,50.20
2018-06-15T10:13:43.012Z,50.20
2018-06-15T10:16:11.203Z,49.50
2018-06-15T10:18:39.374Z,49.30
2018-06-15T10:21:07.538Z,49.20
2018-06-15T10:23:35.782Z,49.10
2018-06-15T10:26:04.237Z,48.90
2018-06-15T10:28:32.347Z,49.20
2018-06-15T10:31:00.583Z,49.30
2018-06-15T10:33:28.797Z,49.20
2018-06-15T10:35:57.041Z,49.10
2018-06-15T10:38:25.242Z,49.40
2018-06-15T10:40:53.407Z,48.60
2018-06-15T10:43:22.296Z,48.50
2018-06-15T10:45:51.271Z,48.50
2018-06-15T10:48:19.381Z,47.50
2018-06-15T10:50:47.554Z,48.00
2018-06-15T10:53:15.788Z,48.20
2018-06-15T10:55:44.078Z,48.40
2018-06-15T10:58:12.472Z,48.10
2018-06-15T11:00:40.629Z,47.60
2018-06-15T11:03:08.816Z,47.40
2018-06-15T11:05:37.336Z,48.00
2018-06-15T11:08:05.900Z,47.30
2018-06-15T11:10:34.069Z,46.90
2018-06-15T11:13:02.216Z,46.30
2018-06-15T11:15:30.394Z,46.70
2018-06-15T11:17:58.511Z,47.10
2018-06-15T11:20:26.678Z,47.40
2018-06-15T11:22:54.817Z,47.50
2018-06-15T11:25:22.956Z,46.80
2018-06-15T11:27:51.293Z,46.80
2018-06-15T11:30:19.535Z,47.00
2018-06-15T11:32:48.655Z,46.80
2018-06-15T11:35:16.881Z,45.90
2018-06-15T11:37:45.161Z,46.20
2018-06-15T11:40:13.393Z,45.80
2018-06-15T11:42:41.665Z,46.20
2018-06-15T11:45:09.924Z,46.60
2018-06-15T11:47:38.158Z,46.40
2018-06-15T11:50:06.536Z,47.10
2018-06-15T11:52:34.848Z,46.40
2018-06-15T11:55:02.946Z,46.60
2018-06-15T11:57:31.181Z,46.60
2018-06-15T11:59:59.462Z,46.30
2018-06-15T12:02:27.642Z,46.40
2018-06-15T12:04:55.866Z,47.00
2018-06-15T12:07:24.198Z,47.10
2018-06-15T12:09:52.405Z,47.20
2018-06-15T12:12:20.683Z,47.30
2018-06-15T12:14:49.437Z,47.40
2018-06-15T12:17:18.119Z,47.50
2018-06-15T12:19:46.382Z,47.90
2018-06-15T12:22:14.702Z,48.40
2018-06-15T12:24:44.295Z,48.60
2018-06-15T12:27:13.563Z,49.10
2018-06-15T12:29:42.361Z,49.20
2018-06-15T12:32:11.927Z,49.40
2018-06-15T12:34:42.053Z,49.50
2018-06-15T12:37:11.537Z,49.90
2018-06-15T12:39:39.822Z,49.40
2018-06-15T12:42:08.007Z,49.40
2018-06-15T12:44:36.179Z,49.40
2018-06-15T12:47:04.497Z,49.40
2018-06-15T12:49:32.740Z,49.20
2018-06-15T12:52:00.943Z,49.10
2018-06-15T12:54:29.117Z,48.70
2018-06-15T12:56:57.246Z,48.30
2018-06-15T13:01:53.466Z,48.20
2018-06-15T13:04:21.620Z,47.40
2018-06-15T13:06:49.851Z,46.20
2018-06-15T13:09:18.135Z,44.60
2018-06-15T13:11:46.350Z,45.30
2018-06-15T13:14:14.657Z,45.20
2018-06-15T13:19:10.825Z,43.00
2018-06-15T13:24:07.827Z,40.10
2018-06-15T13:26:36.049Z,40.00
2018-06-15T13:29:04.211Z,39.70
2018-06-15T13:31:32.580Z,39.00
2018-06-15T13:34:00.865Z,38.60
2018-06-15T13:36:29.094Z,37.90
2018-06-15T13:38:57.483Z,37.80
2018-06-15T13:41:25.817Z,38.60
2018-06-15T13:43:53.967Z,39.10
2018-06-15T13:46:22.123Z,38.40
2018-06-15T13:48:50.440Z,38.30
2018-06-15T13:51:18.692Z,38.40
2018-06-15T13:53:46.890Z,38.40
2018-06-15T13:56:15.045Z,38.80
2018-06-15T13:58:43.345Z,39.00
2018-06-15T14:01:11.647Z,38.80
2018-06-15T14:03:40.752Z,39.40
2018-06-15T14:06:09.199Z,39.60
2018-06-15T14:08:38.042Z,40.10
2018-06-15T14:11:06.345Z,41.10
2018-06-15T14:13:34.628Z,41.00
2018-06-15T14:16:02.771Z,41.20
2018-06-15T14:18:31.067Z,41.40
2018-06-15T14:20:59.237Z,41.80
2018-06-15T14:23:27.562Z,42.40
2018-06-15T14:25:56.585Z,42.30
2018-06-15T14:28:24.911Z,42.30
2018-06-15T14:30:53.943Z,42.60
2018-06-15T14:33:23.490Z,42.80
2018-06-15T14:35:52.867Z,42.80
2018-06-15T14:40:50.980Z,43.40
2018-06-15T14:43:19.298Z,43.90
2018-06-15T14:45:47.630Z,44.00
2018-06-15T14:48:15.903Z,44.20
2018-06-15T14:50:44.109Z,44.20
2018-06-15T14:53:12.647Z,44.50
2018-06-15T14:55:40.810Z,44.80
2018-06-15T14:58:09.032Z,44.70
2018-06-15T15:00:37.308Z,44.90
2018-06-15T15:03:05.718Z,45.30
2018-06-15T15:05:33.968Z,45.40
2018-06-15T15:08:02.830Z,45.60
2018-06-15T15:10:31.139Z,45.80
2018-06-15T15:12:59.355Z,45.60
2018-06-15T15:15:27.835Z,45.70
2018-06-15T15:17:56.092Z,46.50
2018-06-15T15:20:24.267Z,46.20
2018-06-15T15:22:52.607Z,46.40
2018-06-15T15:25:20.883Z,46.70
2018-06-15T15:27:49.168Z,46.80
2018-06-15T15:30:17.477Z,46.80
2018-06-15T15:35:14.713Z,47.00
2018-06-15T15:37:43.448Z,47.10
2018-06-15T15:40:12.039Z,47.00
2018-06-15T15:42:40.539Z,47.10
2018-06-15T15:45:08.855Z,47.10
2018-06-15T15:47:37.166Z,47.40
2018-06-15T15:50:05.531Z,47.50
2018-06-15T15:52:33.760Z,47.50
2018-06-15T15:55:01.972Z,47.80
2018-06-15T15:57:30.233Z,47.60
2018-06-15T15:59:58.376Z,47.80
2018-06-15T16:02:27.184Z,47.80
2018-06-15T16:04:55.426Z,47.70
2018-06-15T16:07:23.642Z,47.70
2018-06-15T16:09:51.970Z,47.80
2018-06-15T16:12:20.354Z,47.80
2018-06-15T16:14:48.898Z,48.00
2018-06-15T16:17:17.013Z,47.80
2018-06-15T16:19:45.487Z,48.00
2018-06-15T16:22:13.692Z,48.30
2018-06-15T16:24:41.896Z,48.30
2018-06-15T16:27:10.101Z,48.30
2018-06-15T16:29:38.402Z,48.30
2018-06-15T16:32:06.567Z,48.40
2018-06-15T16:34:35.352Z,48.50
2018-06-15T16:37:04.237Z,48.40
2018-06-15T16:39:32.637Z,48.60
2018-06-15T16:42:00.974Z,48.50
2018-06-15T16:44:29.092Z,48.50
2018-06-15T16:46:57.366Z,48.70
2018-06-15T16:49:25.526Z,48.70
2018-06-15T16:51:54.024Z,48.90
2018-06-15T16:54:22.253Z,48.90
2018-06-15T16:56:51.538Z,48.90
2018-06-15T16:59:19.757Z,48.90
2018-06-15T17:01:47.952Z,49.50
2018-06-15T17:04:16.169Z,49.10
2018-06-15T17:06:44.364Z,49.10
2018-06-15T17:09:12.694Z,49.10
2018-06-15T17:14:08.765Z,49.10
2018-06-15T17:16:36.885Z,49.00
2018-06-15T17:19:05.133Z,49.00
2018-06-15T17:21:33.431Z,48.90
2018-06-15T17:24:01.649Z,48.90
2018-06-15T17:26:30.092Z,48.90
2018-06-15T17:28:58.264Z,48.90
2018-06-15T17:31:26.453Z,49.00
2018-06-15T17:33:54.604Z,48.90
2018-06-15T17:36:22.808Z,48.80
2018-06-15T17:38:50.953Z,48.80
2018-06-15T17:41:19.124Z,48.90
2018-06-15T17:43:47.261Z,49.10
2018-06-15T17:46:15.452Z,49.10
2018-06-15T17:48:43.773Z,49.10
2018-06-15T17:51:12.073Z,49.20
2018-06-15T17:53:40.516Z,49.30
2018-06-15T17:56:08.667Z,49.20
2018-06-15T17:58:36.822Z,49.30
2018-06-15T18:01:05.046Z,49.20
2018-06-15T18:03:33.495Z,49.30
2018-06-15T18:06:01.681Z,49.30
2018-06-15T18:08:29.852Z,49.30
2018-06-15T18:10:58.016Z,49.40
2018-06-15T18:13:26.158Z,49.60
2018-06-15T18:15:54.411Z,49.60
2018-06-15T18:18:22.573Z,49.80
2018-06-15T18:20:50.871Z,50.00
2018-06-15T18:23:19.780Z,49.90
2018-06-15T18:25:48.414Z,50.10
2018-06-15T18:28:16.715Z,50.10
2018-06-15T18:30:44.977Z,50.20
2018-06-15T18:33:13.127Z,50.30
2018-06-15T18:35:41.484Z,50.30
2018-06-15T18:38:09.640Z,50.30
2018-06-15T18:40:37.799Z,50.40
2018-06-15T18:43:06.171Z,50.40
2018-06-15T18:45:34.374Z,50.40
2018-06-15T18:48:02.672Z,50.40
2018-06-15T18:50:30.861Z,50.40
2018-06-15T18:52:59.217Z,50.30
2018-06-15T18:55:27.356Z,50.30
2018-06-15T18:57:55.632Z,50.40
2018-06-15T19:00:23.972Z,50.50
2018-06-15T19:02:52.155Z,50.50
2018-06-15T19:05:20.352Z,50.50
2018-06-15T19:07:48.782Z,50.50
2018-06-15T19:10:16.903Z,50.70
2018-06-15T19:12:45.237Z,50.80
2018-06-15T19:17:41.541Z,50.80
2018-06-15T19:20:09.706Z,50.90
2018-06-15T19:22:37.897Z,50.90
2018-06-15T19:25:06.101Z,51.00
2018-06-15T19:27:34.389Z,51.10
2018-06-15T19:30:02.732Z,51.10
2018-06-15T19:32:30.938Z,51.10
2018-06-15T19:34:59.179Z,51.20
2018-06-15T19:37:27.338Z,51.30
2018-06-15T19:39:55.600Z,51.30
2018-06-15T19:42:23.783Z,51.50
2018-06-15T19:44:51.936Z,51.50
2018-06-15T19:47:20.099Z,51.50
2018-06-15T19:49:48.318Z,51.50
2018-06-15T19:52:16.970Z,51.50
2018-06-15T19:54:45.250Z,51.50
2018-06-15T19:57:13.517Z,51.50
2018-06-15T19:59:41.684Z,51.50
2018-06-15T20:02:09.941Z,51.60
2018-06-15T20:04:38.318Z,51.70
2018-06-15T20:07:06.513Z,51.80
2018-06-15T20:09:34.822Z,51.90
2018-06-15T20:12:03.047Z,52.00
2018-06-15T20:16:59.888Z,52.00
2018-06-15T20:19:28.032Z,51.90
2018-06-15T20:21:56.194Z,52.10
2018-06-15T20:24:24.312Z,52.10
2018-06-15T20:26:52.492Z,52.20
2018-06-15T20:29:20.737Z,52.20
2018-06-15T20:31:49.244Z,52.30
2018-06-15T20:34:17.450Z,52.50
2018-06-15T20:36:45.610Z,52.60
2018-06-15T20:39:13.792Z,52.50
2018-06-15T20:41:41.964Z,52.50
2018-06-15T20:44:10.266Z,52.60
2018-06-15T20:49:06.557Z,52.70
2018-06-15T20:51:34.832Z,52.70
2018-06-15T20:54:04.549Z,52.80
2018-06-15T20:59:00.725Z,52.70
2018-06-15T21:01:29.036Z,52.70
2018-06-15T21:03:57.527Z,52.70
2018-06-15T21:06:25.713Z,52.80
2018-06-15T21:08:53.838Z,52.80
2018-06-15T21:11:21.994Z,52.80
2018-06-15T21:13:50.301Z,52.70
2018-06-15T21:16:18.491Z,52.70
2018-06-15T21:18:46.722Z,52.70
2018-06-15T21:21:15.095Z,52.70
2018-06-15T21:23:43.234Z,53.30
2018-06-15T21:26:11.546Z,52.80
2018-06-15T21:28:39.687Z,52.80
2018-06-15T21:31:07.892Z,52.80
2018-06-15T21:33:36.341Z,52.80
2018-06-15T21:36:04.860Z,52.70
2018-06-15T21:38:33.223Z,52.80
2018-06-15T21:41:01.897Z,52.70
2018-06-15T21:43:30.125Z,52.90
2018-06-15T21:45:58.327Z,53.00
2018-06-15T21:48:26.697Z,53.10
2018-06-15T21:53:24.033Z,52.50
2018-06-15T21:55:52.178Z,52.10
2018-06-15T21:58:20.355Z,51.90
2018-06-15T22:03:16.650Z,51.70
2018-06-15T22:05:44.948Z,51.40
2018-06-15T22:08:13.106Z,51.40
2018-06-15T22:13:09.274Z,51.10
2018-06-15T22:18:05.672Z,51.50
2018-06-15T22:20:33.936Z,51.00
2018-06-15T22:23:03.050Z,51.20
2018-06-15T22:25:31.453Z,51.40
2018-06-15T22:27:59.607Z,51.60
2018-06-15T22:30:27.781Z,51.80
2018-06-15T22:32:56.025Z,52.00
2018-06-15T22:35:24.254Z,52.20
2018-06-15T22:37:52.867Z,52.30
2018-06-15T22:40:21.460Z,52.40
2018-06-15T22:42:49.811Z,53.00
2018-06-15T22:45:18.092Z,52.70
2018-06-15T22:47:46.239Z,52.80
2018-06-15T22:52:42.298Z,53.10
2018-06-15T22:55:10.483Z,53.00
2018-06-15T22:57:38.661Z,53.30
2018-06-15T23:00:07.292Z,53.30
2018-06-15T23:02:35.695Z,53.50
2018-06-15T23:05:04.054Z,53.50
2018-06-15T23:10:00.410Z,53.80
2018-06-15T23:12:28.531Z,53.90
2018-06-15T23:14:56.666Z,53.90
2018-06-15T23:17:24.819Z,53.90
2018-06-15T23:19:53.082Z,54.00
2018-06-15T23:22:21.557Z,54.20
2018-06-15T23:27:17.789Z,54.30
2018-06-15T23:29:45.928Z,54.40
2018-06-15T23:32:14.099Z,54.50
2018-06-15T23:34:42.240Z,54.60
2018-06-15T23:37:10.641Z,54.80
2018-06-15T23:39:38.780Z,54.90
2018-06-15T23:42:07.922Z,55.10
2018-06-15T23:44:36.527Z,55.30
2018-06-15T23:47:04.731Z,55.30
2018-06-15T23:49:32.878Z,55.50
2018-06-15T23:52:01.019Z,55.50
2018-06-15T23:54:29.188Z,55.60
2018-06-15T23:56:57.494Z,55.80
